Satellite Beach, Florida
Current Conditions -  °F | °C
As of 2:58 PM on Thursday 23 Oct 2014 (Local Time) from KCOF Reporting Station
Few Clouds Few Clouds  
Wind Chill: 78°   Ceiling: Unl
Heat Index: 79°   Visibility: 10mi
Dew Point: 59°   Wind: 12mph
Humidity: 51%   Direction: 20°NNE
Pressure: 29.95"   Gusts: NA
Location:  28.17°N, 80.6°W
Report Text: KCOF 231858Z AUTO 02010KT 10SM FEW045 26/15 A2995 RMK AO2 SLP146 T02570149
Loading
Personal Weather Stations






























Interactive Weather Map
Tropical Storm Tracking
New forecast layout! Learn more

10-Day Weather Forecast

Advertisements
Track Severe Weather on mobile